sensor_id;sensor_type;location;lat;lon;timestamp;P1;durP1;ratioP1;P2;durP2;ratioP2
56720;SDS011;53183;47.412;18.884;2023-04-24T00:01:37;9.93;;;5.05;;
56720;SDS011;53183;47.412;18.884;2023-04-24T00:04:06;9.27;;;5.75;;
56720;SDS011;53183;47.412;18.884;2023-04-24T00:06:38;7.80;;;5.45;;
56720;SDS011;53183;47.412;18.884;2023-04-24T00:09:05;9.25;;;5.62;;
56720;SDS011;53183;47.412;18.884;2023-04-24T00:11:32;8.23;;;4.75;;
56720;SDS011;53183;47.412;18.884;2023-04-24T00:13:59;9.75;;;5.12;;
56720;SDS011;53183;47.412;18.884;2023-04-24T00:16:26;9.80;;;7.07;;
56720;SDS011;53183;47.412;18.884;2023-04-24T00:18:54;10.80;;;6.78;;
56720;SDS011;53183;47.412;18.884;2023-04-24T00:21:21;10.50;;;6.55;;
56720;SDS011;53183;47.412;18.884;2023-04-24T00:23:52;9.45;;;6.18;;
56720;SDS011;53183;47.412;18.884;2023-04-24T00:26:20;8.55;;;6.00;;
56720;SDS011;53183;47.412;18.884;2023-04-24T00:28:47;9.93;;;6.43;;
56720;SDS011;53183;47.412;18.884;2023-04-24T00:31:14;10.73;;;6.37;;
56720;SDS011;53183;47.412;18.884;2023-04-24T00:33:41;7.65;;;5.62;;
56720;SDS011;53183;47.412;18.884;2023-04-24T00:36:08;7.87;;;5.53;;
56720;SDS011;53183;47.412;18.884;2023-04-24T00:38:35;11.85;;;6.07;;
56720;SDS011;53183;47.412;18.884;2023-04-24T00:41:03;15.35;;;6.05;;
56720;SDS011;53183;47.412;18.884;2023-04-24T00:43:30;9.05;;;5.12;;
56720;SDS011;53183;47.412;18.884;2023-04-24T00:45:58;12.45;;;6.30;;
56720;SDS011;53183;47.412;18.884;2023-04-24T00:48:26;17.12;;;5.82;;
56720;SDS011;53183;47.412;18.884;2023-04-24T00:50:54;9.88;;;6.90;;
56720;SDS011;53183;47.412;18.884;2023-04-24T00:53:22;11.68;;;6.62;;
56720;SDS011;53183;47.412;18.884;2023-04-24T00:55:49;9.82;;;6.03;;
56720;SDS011;53183;47.412;18.884;2023-04-24T00:58:18;11.93;;;6.47;;
56720;SDS011;53183;47.412;18.884;2023-04-24T01:00:45;7.97;;;5.65;;
56720;SDS011;53183;47.412;18.884;2023-04-24T01:03:13;10.60;;;6.62;;
56720;SDS011;53183;47.412;18.884;2023-04-24T01:05:41;10.18;;;6.12;;
56720;SDS011;53183;47.412;18.884;2023-04-24T01:08:08;11.90;;;5.90;;
56720;SDS011;53183;47.412;18.884;2023-04-24T01:10:37;9.55;;;6.50;;
56720;SDS011;53183;47.412;18.884;2023-04-24T01:13:05;9.25;;;5.95;;
56720;SDS011;53183;47.412;18.884;2023-04-24T01:15:35;15.68;;;6.60;;
56720;SDS011;53183;47.412;18.884;2023-04-24T01:18:02;12.35;;;5.97;;
56720;SDS011;53183;47.412;18.884;2023-04-24T01:20:30;11.23;;;6.78;;
56720;SDS011;53183;47.412;18.884;2023-04-24T01:22:59;17.15;;;7.75;;
56720;SDS011;53183;47.412;18.884;2023-04-24T01:25:27;7.03;;;5.90;;
56720;SDS011;53183;47.412;18.884;2023-04-24T01:27:56;12.80;;;7.55;;
56720;SDS011;53183;47.412;18.884;2023-04-24T01:30:23;11.98;;;7.45;;
56720;SDS011;53183;47.412;18.884;2023-04-24T01:32:51;11.93;;;6.97;;
56720;SDS011;53183;47.412;18.884;2023-04-24T01:35:19;10.30;;;6.93;;
56720;SDS011;53183;47.412;18.884;2023-04-24T01:37:46;12.85;;;7.40;;
56720;SDS011;53183;47.412;18.884;2023-04-24T01:40:14;10.80;;;7.03;;
56720;SDS011;53183;47.412;18.884;2023-04-24T01:42:41;13.32;;;7.90;;
56720;SDS011;53183;47.412;18.884;2023-04-24T01:45:10;12.30;;;7.10;;
56720;SDS011;53183;47.412;18.884;2023-04-24T01:47:39;8.98;;;6.60;;
56720;SDS011;53183;47.412;18.884;2023-04-24T01:50:06;12.07;;;6.43;;
56720;SDS011;53183;47.412;18.884;2023-04-24T01:52:34;8.90;;;6.00;;
56720;SDS011;53183;47.412;18.884;2023-04-24T01:55:03;10.23;;;5.90;;
56720;SDS011;53183;47.412;18.884;2023-04-24T01:57:32;10.20;;;6.10;;
56720;SDS011;53183;47.412;18.884;2023-04-24T01:59:59;9.75;;;6.95;;
56720;SDS011;53183;47.412;18.884;2023-04-24T02:02:28;11.38;;;7.10;;
56720;SDS011;53183;47.412;18.884;2023-04-24T02:04:57;9.48;;;6.15;;
56720;SDS011;53183;47.412;18.884;2023-04-24T02:07:24;7.22;;;5.85;;
56720;SDS011;53183;47.412;18.884;2023-04-24T02:09:51;9.45;;;6.30;;
56720;SDS011;53183;47.412;18.884;2023-04-24T02:12:18;8.55;;;6.22;;
56720;SDS011;53183;47.412;18.884;2023-04-24T02:14:46;7.68;;;6.20;;
56720;SDS011;53183;47.412;18.884;2023-04-24T02:17:13;11.80;;;6.37;;
56720;SDS011;53183;47.412;18.884;2023-04-24T02:19:42;8.73;;;6.05;;
56720;SDS011;53183;47.412;18.884;2023-04-24T02:22:10;7.50;;;5.90;;
56720;SDS011;53183;47.412;18.884;2023-04-24T02:24:37;9.55;;;6.45;;
56720;SDS011;53183;47.412;18.884;2023-04-24T02:27:05;9.77;;;6.05;;
56720;SDS011;53183;47.412;18.884;2023-04-24T02:29:33;10.70;;;6.70;;
56720;SDS011;53183;47.412;18.884;2023-04-24T02:32:00;9.55;;;6.68;;
56720;SDS011;53183;47.412;18.884;2023-04-24T02:34:27;8.48;;;6.40;;
56720;SDS011;53183;47.412;18.884;2023-04-24T02:36:55;10.35;;;6.47;;
56720;SDS011;53183;47.412;18.884;2023-04-24T02:39:22;14.90;;;6.50;;
56720;SDS011;53183;47.412;18.884;2023-04-24T02:41:51;10.50;;;6.95;;
56720;SDS011;53183;47.412;18.884;2023-04-24T02:44:19;14.27;;;6.50;;
56720;SDS011;53183;47.412;18.884;2023-04-24T02:46:46;9.52;;;6.22;;
56720;SDS011;53183;47.412;18.884;2023-04-24T02:49:13;7.90;;;6.53;;
56720;SDS011;53183;47.412;18.884;2023-04-24T02:51:40;8.55;;;5.80;;
56720;SDS011;53183;47.412;18.884;2023-04-24T02:54:08;12.30;;;5.95;;
56720;SDS011;53183;47.412;18.884;2023-04-24T02:56:38;8.57;;;5.53;;
56720;SDS011;53183;47.412;18.884;2023-04-24T02:59:06;10.15;;;5.60;;
56720;SDS011;53183;47.412;18.884;2023-04-24T03:01:33;12.10;;;6.18;;
56720;SDS011;53183;47.412;18.884;2023-04-24T03:04:00;8.25;;;6.05;;
56720;SDS011;53183;47.412;18.884;2023-04-24T03:06:29;9.43;;;5.70;;
56720;SDS011;53183;47.412;18.884;2023-04-24T03:08:58;8.05;;;6.25;;
56720;SDS011;53183;47.412;18.884;2023-04-24T03:11:25;8.38;;;6.70;;
56720;SDS011;53183;47.412;18.884;2023-04-24T03:13:52;8.82;;;6.50;;
56720;SDS011;53183;47.412;18.884;2023-04-24T03:16:19;11.02;;;6.60;;
56720;SDS011;53183;47.412;18.884;2023-04-24T03:18:47;12.25;;;6.50;;
56720;SDS011;53183;47.412;18.884;2023-04-24T03:21:14;11.45;;;5.93;;
56720;SDS011;53183;47.412;18.884;2023-04-24T03:23:42;7.87;;;6.22;;
56720;SDS011;53183;47.412;18.884;2023-04-24T03:26:09;9.35;;;6.12;;
56720;SDS011;53183;47.412;18.884;2023-04-24T03:28:39;14.23;;;6.12;;
56720;SDS011;53183;47.412;18.884;2023-04-24T03:31:06;12.23;;;6.00;;
56720;SDS011;53183;47.412;18.884;2023-04-24T03:33:34;9.98;;;5.28;;
56720;SDS011;53183;47.412;18.884;2023-04-24T03:36:03;9.82;;;5.90;;
56720;SDS011;53183;47.412;18.884;2023-04-24T03:38:34;8.60;;;5.25;;
56720;SDS011;53183;47.412;18.884;2023-04-24T03:41:02;8.75;;;6.22;;
56720;SDS011;53183;47.412;18.884;2023-04-24T03:43:30;7.85;;;6.40;;
56720;SDS011;53183;47.412;18.884;2023-04-24T03:45:57;8.18;;;6.05;;
56720;SDS011;53183;47.412;18.884;2023-04-24T03:48:25;8.60;;;6.50;;
56720;SDS011;53183;47.412;18.884;2023-04-24T03:50:53;14.35;;;6.53;;
56720;SDS011;53183;47.412;18.884;2023-04-24T03:53:20;9.90;;;6.18;;
56720;SDS011;53183;47.412;18.884;2023-04-24T03:55:48;9.23;;;6.15;;
56720;SDS011;53183;47.412;18.884;2023-04-24T03:58:15;10.90;;;7.20;;
56720;SDS011;53183;47.412;18.884;2023-04-24T04:00:42;11.75;;;6.80;;
56720;SDS011;53183;47.412;18.884;2023-04-24T04:03:16;15.38;;;7.05;;
56720;SDS011;53183;47.412;18.884;2023-04-24T04:05:43;15.50;;;6.95;;
56720;SDS011;53183;47.412;18.884;2023-04-24T04:08:10;11.12;;;7.15;;
56720;SDS011;53183;47.412;18.884;2023-04-24T04:10:38;17.25;;;7.12;;
56720;SDS011;53183;47.412;18.884;2023-04-24T04:13:05;18.20;;;7.32;;
56720;SDS011;53183;47.412;18.884;2023-04-24T04:15:34;14.02;;;6.95;;
56720;SDS011;53183;47.412;18.884;2023-04-24T04:18:01;12.82;;;7.72;;
56720;SDS011;53183;47.412;18.884;2023-04-24T04:20:29;13.43;;;7.22;;
56720;SDS011;53183;47.412;18.884;2023-04-24T04:22:57;9.80;;;7.45;;
56720;SDS011;53183;47.412;18.884;2023-04-24T04:25:32;10.30;;;7.53;;
56720;SDS011;53183;47.412;18.884;2023-04-24T04:27:59;14.70;;;7.35;;
56720;SDS011;53183;47.412;18.884;2023-04-24T04:30:27;14.18;;;8.27;;
56720;SDS011;53183;47.412;18.884;2023-04-24T04:32:58;10.85;;;7.03;;
56720;SDS011;53183;47.412;18.884;2023-04-24T04:35:26;10.25;;;7.30;;
56720;SDS011;53183;47.412;18.884;2023-04-24T04:37:54;9.73;;;7.00;;
56720;SDS011;53183;47.412;18.884;2023-04-24T04:40:26;9.80;;;7.18;;
56720;SDS011;53183;47.412;18.884;2023-04-24T04:42:56;11.23;;;8.20;;
56720;SDS011;53183;47.412;18.884;2023-04-24T04:45:24;12.23;;;7.80;;
56720;SDS011;53183;47.412;18.884;2023-04-24T04:47:53;14.07;;;7.97;;
56720;SDS011;53183;47.412;18.884;2023-04-24T04:50:22;16.65;;;9.00;;
56720;SDS011;53183;47.412;18.884;2023-04-24T04:52:51;13.07;;;7.60;;
56720;SDS011;53183;47.412;18.884;2023-04-24T04:55:23;15.23;;;8.52;;
56720;SDS011;53183;47.412;18.884;2023-04-24T04:57:52;10.93;;;8.07;;
56720;SDS011;53183;47.412;18.884;2023-04-24T05:00:20;19.90;;;10.05;;
56720;SDS011;53183;47.412;18.884;2023-04-24T05:02:49;13.68;;;7.37;;
56720;SDS011;53183;47.412;18.884;2023-04-24T05:05:17;17.12;;;8.73;;
56720;SDS011;53183;47.412;18.884;2023-04-24T05:07:45;11.07;;;7.82;;
56720;SDS011;53183;47.412;18.884;2023-04-24T05:10:12;12.30;;;7.90;;
56720;SDS011;53183;47.412;18.884;2023-04-24T05:12:39;11.27;;;7.85;;
56720;SDS011;53183;47.412;18.884;2023-04-24T05:15:06;12.77;;;8.75;;
56720;SDS011;53183;47.412;18.884;2023-04-24T05:17:34;10.20;;;7.80;;
56720;SDS011;53183;47.412;18.884;2023-04-24T05:20:02;17.05;;;7.90;;
56720;SDS011;53183;47.412;18.884;2023-04-24T05:22:32;17.83;;;7.97;;
56720;SDS011;53183;47.412;18.884;2023-04-24T05:24:59;13.62;;;7.25;;
56720;SDS011;53183;47.412;18.884;2023-04-24T05:27:27;9.90;;;7.80;;
56720;SDS011;53183;47.412;18.884;2023-04-24T05:29:54;11.32;;;7.85;;
56720;SDS011;53183;47.412;18.884;2023-04-24T05:32:22;12.43;;;7.90;;
56720;SDS011;53183;47.412;18.884;2023-04-24T05:34:49;11.07;;;7.78;;
56720;SDS011;53183;47.412;18.884;2023-04-24T05:37:16;12.55;;;7.60;;
56720;SDS011;53183;47.412;18.884;2023-04-24T05:39:43;28.00;;;7.82;;
56720;SDS011;53183;47.412;18.884;2023-04-24T05:42:12;14.38;;;8.13;;
56720;SDS011;53183;47.412;18.884;2023-04-24T05:44:39;14.65;;;7.78;;
56720;SDS011;53183;47.412;18.884;2023-04-24T05:47:06;12.85;;;8.02;;
56720;SDS011;53183;47.412;18.884;2023-04-24T05:49:33;21.45;;;8.90;;
56720;SDS011;53183;47.412;18.884;2023-04-24T05:52:01;13.18;;;7.60;;
56720;SDS011;53183;47.412;18.884;2023-04-24T05:54:31;16.98;;;8.45;;
56720;SDS011;53183;47.412;18.884;2023-04-24T05:56:58;14.27;;;7.18;;
56720;SDS011;53183;47.412;18.884;2023-04-24T05:59:26;12.00;;;7.68;;
56720;SDS011;53183;47.412;18.884;2023-04-24T06:01:53;10.70;;;6.97;;
56720;SDS011;53183;47.412;18.884;2023-04-24T06:04:21;9.20;;;6.70;;
56720;SDS011;53183;47.412;18.884;2023-04-24T06:06:50;11.25;;;8.48;;
56720;SDS011;53183;47.412;18.884;2023-04-24T06:09:22;14.18;;;7.97;;
56720;SDS011;53183;47.412;18.884;2023-04-24T06:11:49;10.73;;;7.75;;
56720;SDS011;53183;47.412;18.884;2023-04-24T06:14:20;10.60;;;7.40;;
56720;SDS011;53183;47.412;18.884;2023-04-24T06:16:50;15.00;;;8.50;;
56720;SDS011;53183;47.412;18.884;2023-04-24T06:19:19;11.88;;;8.23;;
56720;SDS011;53183;47.412;18.884;2023-04-24T06:21:46;14.25;;;9.40;;
56720;SDS011;53183;47.412;18.884;2023-04-24T06:24:14;15.88;;;9.20;;
56720;SDS011;53183;47.412;18.884;2023-04-24T06:26:42;14.02;;;8.63;;
56720;SDS011;53183;47.412;18.884;2023-04-24T06:29:09;15.52;;;9.05;;
56720;SDS011;53183;47.412;18.884;2023-04-24T06:31:37;13.90;;;9.38;;
56720;SDS011;53183;47.412;18.884;2023-04-24T06:34:04;12.82;;;8.15;;
56720;SDS011;53183;47.412;18.884;2023-04-24T06:36:31;12.65;;;8.25;;
56720;SDS011;53183;47.412;18.884;2023-04-24T06:39:01;11.38;;;9.38;;
56720;SDS011;53183;47.412;18.884;2023-04-24T06:41:28;12.05;;;7.93;;
56720;SDS011;53183;47.412;18.884;2023-04-24T06:43:56;11.55;;;8.00;;
56720;SDS011;53183;47.412;18.884;2023-04-24T06:46:23;9.70;;;7.93;;
56720;SDS011;53183;47.412;18.884;2023-04-24T06:48:53;11.80;;;8.05;;
56720;SDS011;53183;47.412;18.884;2023-04-24T06:51:23;10.00;;;7.22;;
56720;SDS011;53183;47.412;18.884;2023-04-24T06:53:55;12.48;;;8.05;;
56720;SDS011;53183;47.412;18.884;2023-04-24T06:56:25;12.75;;;7.68;;
56720;SDS011;53183;47.412;18.884;2023-04-24T06:58:53;11.05;;;7.78;;
56720;SDS011;53183;47.412;18.884;2023-04-24T07:01:20;14.25;;;9.65;;
56720;SDS011;53183;47.412;18.884;2023-04-24T07:03:47;12.75;;;6.90;;
56720;SDS011;53183;47.412;18.884;2023-04-24T07:06:14;11.57;;;7.82;;
56720;SDS011;53183;47.412;18.884;2023-04-24T07:08:43;12.88;;;7.95;;
56720;SDS011;53183;47.412;18.884;2023-04-24T07:11:10;13.93;;;8.07;;
56720;SDS011;53183;47.412;18.884;2023-04-24T07:13:37;12.60;;;8.27;;
56720;SDS011;53183;47.412;18.884;2023-04-24T07:16:08;16.40;;;8.77;;
56720;SDS011;53183;47.412;18.884;2023-04-24T07:18:38;18.20;;;8.27;;
56720;SDS011;53183;47.412;18.884;2023-04-24T07:21:06;11.48;;;8.20;;
56720;SDS011;53183;47.412;18.884;2023-04-24T07:23:33;16.75;;;9.35;;
56720;SDS011;53183;47.412;18.884;2023-04-24T07:26:01;11.12;;;7.57;;
56720;SDS011;53183;47.412;18.884;2023-04-24T07:28:28;10.75;;;7.95;;
56720;SDS011;53183;47.412;18.884;2023-04-24T07:30:57;15.30;;;8.15;;
56720;SDS011;53183;47.412;18.884;2023-04-24T07:33:26;11.70;;;7.65;;
56720;SDS011;53183;47.412;18.884;2023-04-24T07:35:53;11.48;;;7.22;;
56720;SDS011;53183;47.412;18.884;2023-04-24T07:38:21;13.48;;;8.10;;
56720;SDS011;53183;47.412;18.884;2023-04-24T07:40:49;19.37;;;8.00;;
56720;SDS011;53183;47.412;18.884;2023-04-24T07:43:16;10.75;;;6.12;;
56720;SDS011;53183;47.412;18.884;2023-04-24T07:45:43;11.55;;;7.57;;
56720;SDS011;53183;47.412;18.884;2023-04-24T07:48:11;13.93;;;6.87;;
56720;SDS011;53183;47.412;18.884;2023-04-24T07:50:41;9.30;;;6.90;;
56720;SDS011;53183;47.412;18.884;2023-04-24T07:53:08;16.08;;;7.18;;
56720;SDS011;53183;47.412;18.884;2023-04-24T07:55:36;11.32;;;7.68;;
56720;SDS011;53183;47.412;18.884;2023-04-24T07:58:03;12.07;;;7.65;;
56720;SDS011;53183;47.412;18.884;2023-04-24T08:00:30;11.10;;;7.25;;
56720;SDS011;53183;47.412;18.884;2023-04-24T08:02:58;12.30;;;7.45;;
56720;SDS011;53183;47.412;18.884;2023-04-24T08:05:25;10.32;;;6.80;;
56720;SDS011;53183;47.412;18.884;2023-04-24T08:07:54;10.45;;;7.53;;
56720;SDS011;53183;47.412;18.884;2023-04-24T08:10:22;11.63;;;7.05;;
56720;SDS011;53183;47.412;18.884;2023-04-24T08:12:50;9.45;;;6.93;;
56720;SDS011;53183;47.412;18.884;2023-04-24T08:15:17;9.18;;;6.07;;
56720;SDS011;53183;47.412;18.884;2023-04-24T08:17:44;11.05;;;6.28;;
56720;SDS011;53183;47.412;18.884;2023-04-24T08:20:12;9.27;;;5.87;;
56720;SDS011;53183;47.412;18.884;2023-04-24T08:22:42;7.50;;;5.95;;
56720;SDS011;53183;47.412;18.884;2023-04-24T08:25:10;9.05;;;6.50;;
56720;SDS011;53183;47.412;18.884;2023-04-24T08:27:37;10.63;;;6.87;;
56720;SDS011;53183;47.412;18.884;2023-04-24T08:30:06;9.65;;;5.72;;
56720;SDS011;53183;47.412;18.884;2023-04-24T08:32:34;10.25;;;5.32;;
56720;SDS011;53183;47.412;18.884;2023-04-24T08:35:01;13.30;;;7.60;;
56720;SDS011;53183;47.412;18.884;2023-04-24T08:37:28;8.70;;;6.12;;
56720;SDS011;53183;47.412;18.884;2023-04-24T08:39:56;6.85;;;5.85;;
56720;SDS011;53183;47.412;18.884;2023-04-24T08:42:23;10.13;;;6.93;;
56720;SDS011;53183;47.412;18.884;2023-04-24T08:44:50;11.73;;;6.60;;
56720;SDS011;53183;47.412;18.884;2023-04-24T08:47:18;12.35;;;6.37;;
56720;SDS011;53183;47.412;18.884;2023-04-24T08:49:47;10.57;;;7.20;;
56720;SDS011;53183;47.412;18.884;2023-04-24T08:52:14;12.27;;;6.80;;
56720;SDS011;53183;47.412;18.884;2023-04-24T08:54:42;10.13;;;6.82;;
56720;SDS011;53183;47.412;18.884;2023-04-24T08:57:12;11.25;;;7.22;;
56720;SDS011;53183;47.412;18.884;2023-04-24T08:59:41;9.68;;;6.68;;
56720;SDS011;53183;47.412;18.884;2023-04-24T09:02:10;9.55;;;6.75;;
56720;SDS011;53183;47.412;18.884;2023-04-24T09:04:38;15.75;;;7.30;;
56720;SDS011;53183;47.412;18.884;2023-04-24T09:07:07;11.15;;;6.05;;
56720;SDS011;53183;47.412;18.884;2023-04-24T09:09:37;10.75;;;5.55;;
56720;SDS011;53183;47.412;18.884;2023-04-24T09:12:05;13.62;;;6.97;;
56720;SDS011;53183;47.412;18.884;2023-04-24T09:14:33;12.55;;;5.87;;
56720;SDS011;53183;47.412;18.884;2023-04-24T09:17:00;14.93;;;5.53;;
56720;SDS011;53183;47.412;18.884;2023-04-24T09:19:27;13.30;;;5.80;;
56720;SDS011;53183;47.412;18.884;2023-04-24T09:21:54;9.63;;;6.00;;
56720;SDS011;53183;47.412;18.884;2023-04-24T09:24:22;11.12;;;6.43;;
56720;SDS011;53183;47.412;18.884;2023-04-24T09:26:55;20.85;;;7.07;;
56720;SDS011;53183;47.412;18.884;2023-04-24T09:29:30;18.92;;;7.82;;
56720;SDS011;53183;47.412;18.884;2023-04-24T09:31:59;13.32;;;6.50;;
56720;SDS011;53183;47.412;18.884;2023-04-24T09:34:47;15.85;;;7.25;;
56720;SDS011;53183;47.412;18.884;2023-04-24T09:37:27;16.37;;;6.82;;
56720;SDS011;53183;47.412;18.884;2023-04-24T09:42:56;10.15;;;6.43;;
56720;SDS011;53183;47.412;18.884;2023-04-24T09:45:28;19.12;;;6.80;;
56720;SDS011;53183;47.412;18.884;2023-04-24T09:48:02;10.02;;;6.22;;
56720;SDS011;53183;47.412;18.884;2023-04-24T09:50:30;9.73;;;6.15;;
56720;SDS011;53183;47.412;18.884;2023-04-24T09:53:02;16.65;;;5.93;;
56720;SDS011;53183;47.412;18.884;2023-04-24T09:55:31;9.35;;;6.40;;
56720;SDS011;53183;47.412;18.884;2023-04-24T09:57:59;10.43;;;5.68;;
56720;SDS011;53183;47.412;18.884;2023-04-24T10:00:28;11.93;;;6.72;;
56720;SDS011;53183;47.412;18.884;2023-04-24T10:03:01;8.05;;;6.28;;
56720;SDS011;53183;47.412;18.884;2023-04-24T10:05:33;20.55;;;7.10;;
56720;SDS011;53183;47.412;18.884;2023-04-24T10:08:07;9.25;;;6.40;;
56720;SDS011;53183;47.412;18.884;2023-04-24T10:10:39;13.62;;;6.57;;
56720;SDS011;53183;47.412;18.884;2023-04-24T10:13:12;10.32;;;6.32;;
56720;SDS011;53183;47.412;18.884;2023-04-24T10:15:41;9.63;;;5.75;;
56720;SDS011;53183;47.412;18.884;2023-04-24T10:18:10;12.18;;;5.97;;
56720;SDS011;53183;47.412;18.884;2023-04-24T10:20:39;8.88;;;6.07;;
56720;SDS011;53183;47.412;18.884;2023-04-24T10:23:07;9.50;;;6.45;;
56720;SDS011;53183;47.412;18.884;2023-04-24T10:25:35;10.40;;;6.10;;
56720;SDS011;53183;47.412;18.884;2023-04-24T10:28:04;10.95;;;6.65;;
56720;SDS011;53183;47.412;18.884;2023-04-24T10:30:34;7.62;;;5.82;;
56720;SDS011;53183;47.412;18.884;2023-04-24T10:33:02;10.85;;;7.25;;
56720;SDS011;53183;47.412;18.884;2023-04-24T10:35:31;8.30;;;5.93;;
56720;SDS011;53183;47.412;18.884;2023-04-24T10:38:08;8.52;;;6.78;;
56720;SDS011;53183;47.412;18.884;2023-04-24T10:40:39;10.00;;;7.40;;
56720;SDS011;53183;47.412;18.884;2023-04-24T10:43:06;11.73;;;6.90;;
56720;SDS011;53183;47.412;18.884;2023-04-24T10:45:37;11.48;;;7.28;;
56720;SDS011;53183;47.412;18.884;2023-04-24T10:48:06;12.37;;;7.32;;
56720;SDS011;53183;47.412;18.884;2023-04-24T10:53:15;9.60;;;6.95;;
56720;SDS011;53183;47.412;18.884;2023-04-24T10:55:48;11.93;;;5.47;;
56720;SDS011;53183;47.412;18.884;2023-04-24T10:58:24;7.43;;;4.13;;
56720;SDS011;53183;47.412;18.884;2023-04-24T11:01:02;10.95;;;3.60;;
56720;SDS011;53183;47.412;18.884;2023-04-24T11:03:32;5.45;;;3.53;;
56720;SDS011;53183;47.412;18.884;2023-04-24T11:06:05;10.90;;;4.07;;
56720;SDS011;53183;47.412;18.884;2023-04-24T11:08:38;9.57;;;4.32;;
56720;SDS011;53183;47.412;18.884;2023-04-24T11:16:35;5.85;;;3.03;;
56720;SDS011;53183;47.412;18.884;2023-04-24T11:19:07;3.42;;;2.70;;
56720;SDS011;53183;47.412;18.884;2023-04-24T11:21:45;4.30;;;3.00;;
56720;SDS011;53183;47.412;18.884;2023-04-24T11:24:25;7.68;;;3.10;;
56720;SDS011;53183;47.412;18.884;2023-04-24T11:32:19;4.53;;;2.90;;
56720;SDS011;53183;47.412;18.884;2023-04-24T11:35:38;5.37;;;3.12;;
56720;SDS011;53183;47.412;18.884;2023-04-24T11:37:52;6.78;;;2.90;;
56720;SDS011;53183;47.412;18.884;2023-04-24T11:40:23;6.85;;;2.80;;
56720;SDS011;53183;47.412;18.884;2023-04-24T11:42:52;10.88;;;2.80;;
56720;SDS011;53183;47.412;18.884;2023-04-24T11:45:23;5.97;;;2.75;;
56720;SDS011;53183;47.412;18.884;2023-04-24T11:47:52;7.80;;;2.53;;
56720;SDS011;53183;47.412;18.884;2023-04-24T11:50:21;5.03;;;2.50;;
56720;SDS011;53183;47.412;18.884;2023-04-24T11:52:50;4.22;;;2.22;;
56720;SDS011;53183;47.412;18.884;2023-04-24T11:57:46;8.10;;;2.62;;
56720;SDS011;53183;47.412;18.884;2023-04-24T12:00:24;7.28;;;2.37;;
56720;SDS011;53183;47.412;18.884;2023-04-24T12:03:03;6.32;;;3.00;;
56720;SDS011;53183;47.412;18.884;2023-04-24T12:05:34;4.05;;;2.70;;
56720;SDS011;53183;47.412;18.884;2023-04-24T12:08:03;8.65;;;2.60;;
56720;SDS011;53183;47.412;18.884;2023-04-24T12:10:32;6.25;;;2.95;;
56720;SDS011;53183;47.412;18.884;2023-04-24T12:13:00;3.30;;;2.80;;
56720;SDS011;53183;47.412;18.884;2023-04-24T12:15:27;6.47;;;2.55;;
56720;SDS011;53183;47.412;18.884;2023-04-24T12:17:55;9.10;;;2.50;;
56720;SDS011;53183;47.412;18.884;2023-04-24T12:20:27;5.35;;;2.58;;
56720;SDS011;53183;47.412;18.884;2023-04-24T12:22:56;5.37;;;2.75;;
56720;SDS011;53183;47.412;18.884;2023-04-24T12:25:25;6.22;;;2.50;;
56720;SDS011;53183;47.412;18.884;2023-04-24T12:30:31;5.65;;;2.62;;
56720;SDS011;53183;47.412;18.884;2023-04-24T12:33:05;3.12;;;2.20;;
56720;SDS011;53183;47.412;18.884;2023-04-24T12:35:33;15.35;;;2.58;;
56720;SDS011;53183;47.412;18.884;2023-04-24T12:38:06;4.03;;;2.28;;
56720;SDS011;53183;47.412;18.884;2023-04-24T12:40:35;4.97;;;2.50;;
56720;SDS011;53183;47.412;18.884;2023-04-24T12:43:12;5.68;;;2.92;;
56720;SDS011;53183;47.412;18.884;2023-04-24T12:45:41;9.45;;;4.37;;
56720;SDS011;53183;47.412;18.884;2023-04-24T12:48:08;9.10;;;3.10;;
56720;SDS011;53183;47.412;18.884;2023-04-24T12:50:36;8.98;;;2.90;;
56720;SDS011;53183;47.412;18.884;2023-04-24T12:53:05;6.90;;;3.10;;
56720;SDS011;53183;47.412;18.884;2023-04-24T12:55:36;3.30;;;2.45;;
56720;SDS011;53183;47.412;18.884;2023-04-24T12:58:04;6.53;;;2.80;;
56720;SDS011;53183;47.412;18.884;2023-04-24T13:00:32;4.45;;;3.87;;
56720;SDS011;53183;47.412;18.884;2023-04-24T13:02:59;5.95;;;2.85;;
56720;SDS011;53183;47.412;18.884;2023-04-24T13:05:28;6.43;;;3.87;;
56720;SDS011;53183;47.412;18.884;2023-04-24T13:07:56;5.43;;;2.33;;
56720;SDS011;53183;47.412;18.884;2023-04-24T13:10:24;5.72;;;3.97;;
56720;SDS011;53183;47.412;18.884;2023-04-24T13:12:51;9.57;;;4.03;;
56720;SDS011;53183;47.412;18.884;2023-04-24T13:15:18;8.85;;;3.47;;
56720;SDS011;53183;47.412;18.884;2023-04-24T13:17:46;6.65;;;3.10;;
56720;SDS011;53183;47.412;18.884;2023-04-24T13:20:13;5.62;;;3.40;;
56720;SDS011;53183;47.412;18.884;2023-04-24T13:22:40;7.20;;;3.45;;
56720;SDS011;53183;47.412;18.884;2023-04-24T13:25:07;12.00;;;3.50;;
56720;SDS011;53183;47.412;18.884;2023-04-24T13:27:37;6.18;;;2.90;;
56720;SDS011;53183;47.412;18.884;2023-04-24T13:30:05;4.82;;;3.00;;
56720;SDS011;53183;47.412;18.884;2023-04-24T13:32:33;7.35;;;3.70;;
56720;SDS011;53183;47.412;18.884;2023-04-24T13:35:02;6.40;;;3.78;;
56720;SDS011;53183;47.412;18.884;2023-04-24T13:37:29;5.62;;;3.83;;
56720;SDS011;53183;47.412;18.884;2023-04-24T13:39:57;5.47;;;3.20;;
56720;SDS011;53183;47.412;18.884;2023-04-24T13:42:24;13.30;;;4.82;;
56720;SDS011;53183;47.412;18.884;2023-04-24T13:44:51;12.30;;;5.62;;
56720;SDS011;53183;47.412;18.884;2023-04-24T13:47:19;9.30;;;5.03;;
56720;SDS011;53183;47.412;18.884;2023-04-24T13:49:46;10.85;;;5.37;;
56720;SDS011;53183;47.412;18.884;2023-04-24T13:52:14;8.75;;;4.82;;
56720;SDS011;53183;47.412;18.884;2023-04-24T13:54:41;8.60;;;4.62;;
56720;SDS011;53183;47.412;18.884;2023-04-24T13:57:08;11.23;;;5.30;;
56720;SDS011;53183;47.412;18.884;2023-04-24T13:59:35;6.80;;;4.47;;
56720;SDS011;53183;47.412;18.884;2023-04-24T14:02:03;10.70;;;5.65;;
56720;SDS011;53183;47.412;18.884;2023-04-24T14:04:31;9.15;;;6.12;;
56720;SDS011;53183;47.412;18.884;2023-04-24T14:06:58;10.18;;;5.22;;
56720;SDS011;53183;47.412;18.884;2023-04-24T14:09:25;8.10;;;5.82;;
56720;SDS011;53183;47.412;18.884;2023-04-24T14:11:53;9.52;;;5.97;;
56720;SDS011;53183;47.412;18.884;2023-04-24T14:14:20;8.10;;;4.95;;
56720;SDS011;53183;47.412;18.884;2023-04-24T14:16:47;11.27;;;5.30;;
56720;SDS011;53183;47.412;18.884;2023-04-24T14:19:15;11.82;;;6.18;;
56720;SDS011;53183;47.412;18.884;2023-04-24T14:21:42;12.65;;;6.50;;
56720;SDS011;53183;47.412;18.884;2023-04-24T14:24:09;9.95;;;6.57;;
56720;SDS011;53183;47.412;18.884;2023-04-24T14:26:37;17.55;;;7.37;;
56720;SDS011;53183;47.412;18.884;2023-04-24T14:29:04;7.90;;;6.22;;
56720;SDS011;53183;47.412;18.884;2023-04-24T14:31:40;8.98;;;6.53;;
56720;SDS011;53183;47.412;18.884;2023-04-24T14:34:08;8.20;;;5.40;;
56720;SDS011;53183;47.412;18.884;2023-04-24T14:36:35;9.68;;;6.10;;
56720;SDS011;53183;47.412;18.884;2023-04-24T14:39:03;12.73;;;6.65;;
56720;SDS011;53183;47.412;18.884;2023-04-24T14:41:33;11.88;;;6.95;;
56720;SDS011;53183;47.412;18.884;2023-04-24T14:44:03;8.07;;;5.53;;
56720;SDS011;53183;47.412;18.884;2023-04-24T14:46:30;8.05;;;5.35;;
56720;SDS011;53183;47.412;18.884;2023-04-24T14:48:58;7.93;;;5.25;;
56720;SDS011;53183;47.412;18.884;2023-04-24T14:51:25;9.52;;;6.53;;
56720;SDS011;53183;47.412;18.884;2023-04-24T14:53:53;8.05;;;5.90;;
56720;SDS011;53183;47.412;18.884;2023-04-24T14:56:21;8.05;;;5.72;;
56720;SDS011;53183;47.412;18.884;2023-04-24T14:58:50;7.53;;;5.15;;